sensor_id;sensor_type;location;lat;lon;timestamp;temperature;humidity
2625;DHT22;1322;53.256;10.386;2023-11-21T00:00:10;11.50;99.90
2625;DHT22;1322;53.256;10.386;2023-11-21T00:02:38;11.20;99.90
2625;DHT22;1322;53.256;10.386;2023-11-21T00:05:09;11.10;99.90
2625;DHT22;1322;53.256;10.386;2023-11-21T00:07:36;11.00;99.90
2625;DHT22;1322;53.256;10.386;2023-11-21T00:10:02;10.90;99.90
2625;DHT22;1322;53.256;10.386;2023-11-21T00:12:28;10.80;99.90
2625;DHT22;1322;53.256;10.386;2023-11-21T00:14:55;10.80;99.90
2625;DHT22;1322;53.256;10.386;2023-11-21T00:17:20;10.80;99.90
2625;DHT22;1322;53.256;10.386;2023-11-21T00:19:46;10.60;99.90
2625;DHT22;1322;53.256;10.386;2023-11-21T00:22:11;10.60;99.90
2625;DHT22;1322;53.256;10.386;2023-11-21T00:24:37;10.40;99.90
2625;DHT22;1322;53.256;10.386;2023-11-21T00:27:03;10.20;99.90
2625;DHT22;1322;53.256;10.386;2023-11-21T00:29:28;9.90;99.90
2625;DHT22;1322;53.256;10.386;2023-11-21T00:31:54;9.90;99.90
2625;DHT22;1322;53.256;10.386;2023-11-21T00:34:20;9.70;99.90
2625;DHT22;1322;53.256;10.386;2023-11-21T00:36:46;9.60;99.90
2625;DHT22;1322;53.256;10.386;2023-11-21T00:39:11;9.50;99.90
2625;DHT22;1322;53.256;10.386;2023-11-21T00:41:37;9.40;99.90
2625;DHT22;1322;53.256;10.386;2023-11-21T00:44:03;9.30;99.90
2625;DHT22;1322;53.256;10.386;2023-11-21T00:46:29;9.30;99.90
2625;DHT22;1322;53.256;10.386;2023-11-21T00:48:55;9.20;99.90
2625;DHT22;1322;53.256;10.386;2023-11-21T00:51:21;9.10;99.90
2625;DHT22;1322;53.256;10.386;2023-11-21T00:53:47;9.20;99.90
2625;DHT22;1322;53.256;10.386;2023-11-21T00:56:13;9.10;99.90
2625;DHT22;1322;53.256;10.386;2023-11-21T00:58:39;9.00;99.90
2625;DHT22;1322;53.256;10.386;2023-11-21T01:01:09;9.00;99.90
2625;DHT22;1322;53.256;10.386;2023-11-21T01:03:35;8.90;99.90
2625;DHT22;1322;53.256;10.386;2023-11-21T01:06:00;8.80;99.90
2625;DHT22;1322;53.256;10.386;2023-11-21T01:08:26;8.90;99.90
2625;DHT22;1322;53.256;10.386;2023-11-21T01:10:52;9.00;99.90
2625;DHT22;1322;53.256;10.386;2023-11-21T01:13:18;8.80;99.90
2625;DHT22;1322;53.256;10.386;2023-11-21T01:15:43;8.80;99.90
2625;DHT22;1322;53.256;10.386;2023-11-21T01:18:09;8.80;99.90
2625;DHT22;1322;53.256;10.386;2023-11-21T01:20:35;8.90;99.90
2625;DHT22;1322;53.256;10.386;2023-11-21T01:23:00;8.90;99.90
2625;DHT22;1322;53.256;10.386;2023-11-21T01:25:26;8.90;99.90
2625;DHT22;1322;53.256;10.386;2023-11-21T01:27:52;8.60;99.90
2625;DHT22;1322;53.256;10.386;2023-11-21T01:30:17;8.50;99.90
2625;DHT22;1322;53.256;10.386;2023-11-21T01:32:43;8.50;99.90
2625;DHT22;1322;53.256;10.386;2023-11-21T01:35:09;8.50;99.90
2625;DHT22;1322;53.256;10.386;2023-11-21T01:37:36;8.50;99.90
2625;DHT22;1322;53.256;10.386;2023-11-21T01:40:03;8.70;99.90
2625;DHT22;1322;53.256;10.386;2023-11-21T01:42:33;8.80;99.90
2625;DHT22;1322;53.256;10.386;2023-11-21T01:44:59;8.90;99.90
2625;DHT22;1322;53.256;10.386;2023-11-21T01:47:25;8.90;99.90
2625;DHT22;1322;53.256;10.386;2023-11-21T01:49:51;8.60;99.90
2625;DHT22;1322;53.256;10.386;2023-11-21T01:52:17;8.50;99.90
2625;DHT22;1322;53.256;10.386;2023-11-21T01:54:43;8.50;99.90
2625;DHT22;1322;53.256;10.386;2023-11-21T01:57:08;8.50;99.90
2625;DHT22;1322;53.256;10.386;2023-11-21T01:59:39;8.60;99.90
2625;DHT22;1322;53.256;10.386;2023-11-21T02:02:07;8.40;99.90
2625;DHT22;1322;53.256;10.386;2023-11-21T02:04:34;8.30;99.90
2625;DHT22;1322;53.256;10.386;2023-11-21T02:07:00;8.20;99.90
2625;DHT22;1322;53.256;10.386;2023-11-21T02:09:27;8.20;99.90
2625;DHT22;1322;53.256;10.386;2023-11-21T02:11:56;8.10;99.90
2625;DHT22;1322;53.256;10.386;2023-11-21T02:14:22;8.10;99.90
2625;DHT22;1322;53.256;10.386;2023-11-21T02:16:51;8.10;99.90
2625;DHT22;1322;53.256;10.386;2023-11-21T02:19:21;8.10;99.90
2625;DHT22;1322;53.256;10.386;2023-11-21T02:21:56;8.20;99.90
2625;DHT22;1322;53.256;10.386;2023-11-21T02:24:25;8.10;99.90
2625;DHT22;1322;53.256;10.386;2023-11-21T02:26:50;7.90;99.90
2625;DHT22;1322;53.256;10.386;2023-11-21T02:29:17;8.00;99.90
2625;DHT22;1322;53.256;10.386;2023-11-21T02:31:45;7.70;99.90
2625;DHT22;1322;53.256;10.386;2023-11-21T02:34:17;7.80;99.90
2625;DHT22;1322;53.256;10.386;2023-11-21T02:36:43;7.80;99.90
2625;DHT22;1322;53.256;10.386;2023-11-21T02:39:10;7.80;99.90
2625;DHT22;1322;53.256;10.386;2023-11-21T02:41:39;7.70;99.90
2625;DHT22;1322;53.256;10.386;2023-11-21T02:44:05;7.90;99.90
2625;DHT22;1322;53.256;10.386;2023-11-21T02:46:32;8.00;99.90
2625;DHT22;1322;53.256;10.386;2023-11-21T02:49:00;8.20;99.90
2625;DHT22;1322;53.256;10.386;2023-11-21T02:51:26;8.20;99.90
2625;DHT22;1322;53.256;10.386;2023-11-21T02:53:52;8.20;99.90
2625;DHT22;1322;53.256;10.386;2023-11-21T02:56:17;8.00;99.90
2625;DHT22;1322;53.256;10.386;2023-11-21T02:58:43;8.00;99.90
2625;DHT22;1322;53.256;10.386;2023-11-21T03:01:09;8.00;99.90
2625;DHT22;1322;53.256;10.386;2023-11-21T03:03:39;7.90;99.90
2625;DHT22;1322;53.256;10.386;2023-11-21T03:06:06;7.90;99.90
2625;DHT22;1322;53.256;10.386;2023-11-21T03:08:32;7.90;99.90
2625;DHT22;1322;53.256;10.386;2023-11-21T03:10:58;7.80;99.90
2625;DHT22;1322;53.256;10.386;2023-11-21T03:13:23;7.90;99.90
2625;DHT22;1322;53.256;10.386;2023-11-21T03:15:49;7.90;99.90
2625;DHT22;1322;53.256;10.386;2023-11-21T03:18:15;8.00;99.90
2625;DHT22;1322;53.256;10.386;2023-11-21T03:20:40;7.90;99.90
2625;DHT22;1322;53.256;10.386;2023-11-21T03:23:06;8.00;99.90
2625;DHT22;1322;53.256;10.386;2023-11-21T03:25:32;7.90;99.90
2625;DHT22;1322;53.256;10.386;2023-11-21T03:27:58;8.10;99.90
2625;DHT22;1322;53.256;10.386;2023-11-21T03:30:23;8.00;99.90
2625;DHT22;1322;53.256;10.386;2023-11-21T03:32:49;7.80;99.90
2625;DHT22;1322;53.256;10.386;2023-11-21T03:35:15;7.90;99.90
2625;DHT22;1322;53.256;10.386;2023-11-21T03:37:41;7.80;99.90
2625;DHT22;1322;53.256;10.386;2023-11-21T03:40:07;7.90;99.90
2625;DHT22;1322;53.256;10.386;2023-11-21T03:42:38;8.00;99.90
2625;DHT22;1322;53.256;10.386;2023-11-21T03:45:05;7.90;99.90
2625;DHT22;1322;53.256;10.386;2023-11-21T03:47:30;7.90;99.90
2625;DHT22;1322;53.256;10.386;2023-11-21T03:49:56;7.80;99.90
2625;DHT22;1322;53.256;10.386;2023-11-21T03:52:22;7.70;99.90
2625;DHT22;1322;53.256;10.386;2023-11-21T03:54:47;7.80;99.90
2625;DHT22;1322;53.256;10.386;2023-11-21T03:57:13;7.80;99.90
2625;DHT22;1322;53.256;10.386;2023-11-21T03:59:40;7.70;99.90
2625;DHT22;1322;53.256;10.386;2023-11-21T04:02:07;7.80;99.90
2625;DHT22;1322;53.256;10.386;2023-11-21T04:04:33;7.90;99.90
2625;DHT22;1322;53.256;10.386;2023-11-21T04:06:59;7.90;99.90
2625;DHT22;1322;53.256;10.386;2023-11-21T04:09:25;7.90;99.90
2625;DHT22;1322;53.256;10.386;2023-11-21T04:11:51;7.90;99.90
2625;DHT22;1322;53.256;10.386;2023-11-21T04:14:17;7.90;99.90
2625;DHT22;1322;53.256;10.386;2023-11-21T04:16:43;7.90;99.90
2625;DHT22;1322;53.256;10.386;2023-11-21T04:19:08;8.00;99.90
2625;DHT22;1322;53.256;10.386;2023-11-21T04:21:40;8.00;99.90
2625;DHT22;1322;53.256;10.386;2023-11-21T04:24:06;8.00;99.90
2625;DHT22;1322;53.256;10.386;2023-11-21T04:26:32;8.00;99.90
2625;DHT22;1322;53.256;10.386;2023-11-21T04:28:58;8.00;99.90
2625;DHT22;1322;53.256;10.386;2023-11-21T04:31:23;7.90;99.90
2625;DHT22;1322;53.256;10.386;2023-11-21T04:33:49;7.90;99.90
2625;DHT22;1322;53.256;10.386;2023-11-21T04:36:14;7.80;99.90
2625;DHT22;1322;53.256;10.386;2023-11-21T04:38:40;7.90;99.90
2625;DHT22;1322;53.256;10.386;2023-11-21T04:41:07;8.00;99.90
2625;DHT22;1322;53.256;10.386;2023-11-21T04:43:32;7.80;99.90
2625;DHT22;1322;53.256;10.386;2023-11-21T04:45:58;7.90;99.90
2625;DHT22;1322;53.256;10.386;2023-11-21T04:48:24;7.90;99.90
2625;DHT22;1322;53.256;10.386;2023-11-21T04:50:50;7.90;99.90
2625;DHT22;1322;53.256;10.386;2023-11-21T04:53:17;7.90;99.90
2625;DHT22;1322;53.256;10.386;2023-11-21T04:55:45;7.90;99.90
2625;DHT22;1322;53.256;10.386;2023-11-21T04:58:12;8.00;99.90
2625;DHT22;1322;53.256;10.386;2023-11-21T05:00:38;8.00;99.90
2625;DHT22;1322;53.256;10.386;2023-11-21T05:03:03;8.00;99.90
2625;DHT22;1322;53.256;10.386;2023-11-21T05:05:30;8.00;99.90
2625;DHT22;1322;53.256;10.386;2023-11-21T05:07:56;7.90;99.90
2625;DHT22;1322;53.256;10.386;2023-11-21T05:10:21;8.00;99.90
2625;DHT22;1322;53.256;10.386;2023-11-21T05:12:48;7.90;99.90
2625;DHT22;1322;53.256;10.386;2023-11-21T05:15:16;7.90;99.90
2625;DHT22;1322;53.256;10.386;2023-11-21T05:17:43;7.80;99.90
2625;DHT22;1322;53.256;10.386;2023-11-21T05:20:13;7.80;99.90
2625;DHT22;1322;53.256;10.386;2023-11-21T05:22:39;7.90;99.90
2625;DHT22;1322;53.256;10.386;2023-11-21T05:25:06;8.00;99.90
2625;DHT22;1322;53.256;10.386;2023-11-21T05:27:36;8.00;99.90
2625;DHT22;1322;53.256;10.386;2023-11-21T05:30:03;7.90;99.90
2625;DHT22;1322;53.256;10.386;2023-11-21T05:32:32;7.90;99.90
2625;DHT22;1322;53.256;10.386;2023-11-21T05:34:58;7.80;99.90
2625;DHT22;1322;53.256;10.386;2023-11-21T05:37:24;7.70;99.90
2625;DHT22;1322;53.256;10.386;2023-11-21T05:39:55;7.80;99.90
2625;DHT22;1322;53.256;10.386;2023-11-21T05:42:25;7.90;99.90
2625;DHT22;1322;53.256;10.386;2023-11-21T05:44:50;7.80;99.90
2625;DHT22;1322;53.256;10.386;2023-11-21T05:47:16;7.80;99.90
2625;DHT22;1322;53.256;10.386;2023-11-21T05:49:42;7.90;99.90
2625;DHT22;1322;53.256;10.386;2023-11-21T05:52:08;7.90;99.90
2625;DHT22;1322;53.256;10.386;2023-11-21T05:54:33;8.10;99.90
2625;DHT22;1322;53.256;10.386;2023-11-21T05:56:59;8.10;99.90
2625;DHT22;1322;53.256;10.386;2023-11-21T05:59:25;8.20;99.90
2625;DHT22;1322;53.256;10.386;2023-11-21T06:01:50;8.10;99.90
2625;DHT22;1322;53.256;10.386;2023-11-21T06:04:16;7.80;99.90
2625;DHT22;1322;53.256;10.386;2023-11-21T06:06:41;7.90;99.90
2625;DHT22;1322;53.256;10.386;2023-11-21T06:09:07;7.90;99.90
2625;DHT22;1322;53.256;10.386;2023-11-21T06:11:35;8.00;99.90
2625;DHT22;1322;53.256;10.386;2023-11-21T06:14:01;8.00;99.90
2625;DHT22;1322;53.256;10.386;2023-11-21T06:16:27;8.00;99.90
2625;DHT22;1322;53.256;10.386;2023-11-21T06:18:54;8.10;99.90
2625;DHT22;1322;53.256;10.386;2023-11-21T06:21:20;8.00;99.90
2625;DHT22;1322;53.256;10.386;2023-11-21T06:23:45;8.10;99.90
2625;DHT22;1322;53.256;10.386;2023-11-21T06:26:11;8.00;99.90
2625;DHT22;1322;53.256;10.386;2023-11-21T06:28:38;7.80;99.90
2625;DHT22;1322;53.256;10.386;2023-11-21T06:31:04;7.80;99.90
2625;DHT22;1322;53.256;10.386;2023-11-21T06:33:34;7.90;99.90
2625;DHT22;1322;53.256;10.386;2023-11-21T06:35:59;7.90;99.90
2625;DHT22;1322;53.256;10.386;2023-11-21T06:38:28;8.00;99.90
2625;DHT22;1322;53.256;10.386;2023-11-21T06:40:56;8.10;99.90
2625;DHT22;1322;53.256;10.386;2023-11-21T06:43:23;8.00;99.90
2625;DHT22;1322;53.256;10.386;2023-11-21T06:45:49;7.90;99.90
2625;DHT22;1322;53.256;10.386;2023-11-21T06:48:15;8.00;99.90
2625;DHT22;1322;53.256;10.386;2023-11-21T06:50:41;8.00;99.90
2625;DHT22;1322;53.256;10.386;2023-11-21T06:53:07;8.00;99.90
2625;DHT22;1322;53.256;10.386;2023-11-21T06:55:34;8.00;99.90
2625;DHT22;1322;53.256;10.386;2023-11-21T06:58:00;8.00;99.90
2625;DHT22;1322;53.256;10.386;2023-11-21T07:00:26;8.10;99.90
2625;DHT22;1322;53.256;10.386;2023-11-21T07:02:55;8.10;99.90
2625;DHT22;1322;53.256;10.386;2023-11-21T07:05:22;8.20;99.90
2625;DHT22;1322;53.256;10.386;2023-11-21T07:07:48;8.20;99.90
2625;DHT22;1322;53.256;10.386;2023-11-21T07:10:14;8.20;99.90
2625;DHT22;1322;53.256;10.386;2023-11-21T07:12:40;8.10;99.90
2625;DHT22;1322;53.256;10.386;2023-11-21T07:15:07;8.00;99.90
2625;DHT22;1322;53.256;10.386;2023-11-21T07:17:35;8.00;99.90
2625;DHT22;1322;53.256;10.386;2023-11-21T07:20:01;8.00;99.90
2625;DHT22;1322;53.256;10.386;2023-11-21T07:22:27;8.00;99.90
2625;DHT22;1322;53.256;10.386;2023-11-21T07:24:53;8.10;99.90
2625;DHT22;1322;53.256;10.386;2023-11-21T07:27:18;8.00;99.90
2625;DHT22;1322;53.256;10.386;2023-11-21T07:29:44;8.00;99.90
2625;DHT22;1322;53.256;10.386;2023-11-21T07:32:10;8.10;99.90
2625;DHT22;1322;53.256;10.386;2023-11-21T07:34:36;8.20;99.90
2625;DHT22;1322;53.256;10.386;2023-11-21T07:37:02;8.20;99.90
2625;DHT22;1322;53.256;10.386;2023-11-21T07:39:28;8.20;99.90
2625;DHT22;1322;53.256;10.386;2023-11-21T07:41:54;8.30;99.90
2625;DHT22;1322;53.256;10.386;2023-11-21T07:44:20;8.40;99.90
2625;DHT22;1322;53.256;10.386;2023-11-21T07:46:46;8.40;99.90
2625;DHT22;1322;53.256;10.386;2023-11-21T07:49:12;8.50;99.90
2625;DHT22;1322;53.256;10.386;2023-11-21T07:51:41;8.30;99.90
2625;DHT22;1322;53.256;10.386;2023-11-21T07:54:07;8.20;99.90
2625;DHT22;1322;53.256;10.386;2023-11-21T07:56:33;8.30;99.90
2625;DHT22;1322;53.256;10.386;2023-11-21T07:58:58;8.40;99.90
2625;DHT22;1322;53.256;10.386;2023-11-21T08:01:24;8.50;99.90
2625;DHT22;1322;53.256;10.386;2023-11-21T08:03:50;8.60;99.90
2625;DHT22;1322;53.256;10.386;2023-11-21T08:06:18;8.60;99.90
2625;DHT22;1322;53.256;10.386;2023-11-21T08:08:43;8.50;99.90
2625;DHT22;1322;53.256;10.386;2023-11-21T08:11:09;8.50;99.90
2625;DHT22;1322;53.256;10.386;2023-11-21T08:13:36;8.50;99.90
2625;DHT22;1322;53.256;10.386;2023-11-21T08:16:02;8.50;99.90
2625;DHT22;1322;53.256;10.386;2023-11-21T08:18:30;8.40;99.90
2625;DHT22;1322;53.256;10.386;2023-11-21T08:20:56;8.40;99.90
2625;DHT22;1322;53.256;10.386;2023-11-21T08:23:22;8.40;99.90
2625;DHT22;1322;53.256;10.386;2023-11-21T08:25:51;8.40;99.90
2625;DHT22;1322;53.256;10.386;2023-11-21T08:28:17;8.10;99.90
2625;DHT22;1322;53.256;10.386;2023-11-21T08:30:42;8.20;99.90
2625;DHT22;1322;53.256;10.386;2023-11-21T08:33:08;8.20;99.90
2625;DHT22;1322;53.256;10.386;2023-11-21T08:35:35;8.20;99.90
2625;DHT22;1322;53.256;10.386;2023-11-21T08:38:01;8.00;99.90
2625;DHT22;1322;53.256;10.386;2023-11-21T08:40:27;8.20;99.90
2625;DHT22;1322;53.256;10.386;2023-11-21T08:42:53;8.10;99.90
2625;DHT22;1322;53.256;10.386;2023-11-21T08:45:19;8.20;99.90
2625;DHT22;1322;53.256;10.386;2023-11-21T08:47:45;8.30;99.90
2625;DHT22;1322;53.256;10.386;2023-11-21T08:50:11;8.40;99.90
2625;DHT22;1322;53.256;10.386;2023-11-21T08:52:38;8.50;99.90
2625;DHT22;1322;53.256;10.386;2023-11-21T08:55:07;8.50;99.90
2625;DHT22;1322;53.256;10.386;2023-11-21T08:57:37;8.60;99.90
2625;DHT22;1322;53.256;10.386;2023-11-21T09:00:04;17.80;99.90
2625;DHT22;1322;53.256;10.386;2023-11-21T09:02:33;20.20;99.90
2625;DHT22;1322;53.256;10.386;2023-11-21T09:05:00;29.60;99.90
2625;DHT22;1322;53.256;10.386;2023-11-21T09:07:28;25.60;99.90
2625;DHT22;1322;53.256;10.386;2023-11-21T09:09:54;23.00;99.90
2625;DHT22;1322;53.256;10.386;2023-11-21T09:12:20;20.50;99.90
2625;DHT22;1322;53.256;10.386;2023-11-21T09:14:47;18.70;99.90
2625;DHT22;1322;53.256;10.386;2023-11-21T09:17:13;21.60;99.90
2625;DHT22;1322;53.256;10.386;2023-11-21T09:19:40;20.10;99.90
2625;DHT22;1322;53.256;10.386;2023-11-21T09:22:06;18.50;99.90
2625;DHT22;1322;53.256;10.386;2023-11-21T09:24:32;17.20;99.90
2625;DHT22;1322;53.256;10.386;2023-11-21T09:26:58;15.50;99.90
2625;DHT22;1322;53.256;10.386;2023-11-21T09:29:25;14.70;99.90
2625;DHT22;1322;53.256;10.386;2023-11-21T09:31:51;14.30;99.90
2625;DHT22;1322;53.256;10.386;2023-11-21T09:34:17;13.40;99.90
2625;DHT22;1322;53.256;10.386;2023-11-21T09:36:46;12.70;99.90
2625;DHT22;1322;53.256;10.386;2023-11-21T09:39:12;12.10;99.90
2625;DHT22;1322;53.256;10.386;2023-11-21T09:41:49;11.70;99.90
2625;DHT22;1322;53.256;10.386;2023-11-21T09:44:18;11.40;99.90
2625;DHT22;1322;53.256;10.386;2023-11-21T09:46:48;11.20;99.90
2625;DHT22;1322;53.256;10.386;2023-11-21T09:49:18;10.90;99.90
2625;DHT22;1322;53.256;10.386;2023-11-21T09:51:48;10.80;99.90
2625;DHT22;1322;53.256;10.386;2023-11-21T09:54:15;10.50;99.90
2625;DHT22;1322;53.256;10.386;2023-11-21T09:56:43;10.00;99.90
2625;DHT22;1322;53.256;10.386;2023-11-21T09:59:13;9.70;99.90
2625;DHT22;1322;53.256;10.386;2023-11-21T10:01:42;9.80;99.90
2625;DHT22;1322;53.256;10.386;2023-11-21T10:04:08;9.80;99.90
2625;DHT22;1322;53.256;10.386;2023-11-21T10:06:40;9.40;99.90
2625;DHT22;1322;53.256;10.386;2023-11-21T10:09:12;9.50;99.90
2625;DHT22;1322;53.256;10.386;2023-11-21T10:11:42;9.40;99.90
2625;DHT22;1322;53.256;10.386;2023-11-21T10:14:10;9.30;99.90
2625;DHT22;1322;53.256;10.386;2023-11-21T10:16:38;9.30;99.90
2625;DHT22;1322;53.256;10.386;2023-11-21T10:19:05;9.40;99.90
2625;DHT22;1322;53.256;10.386;2023-11-21T10:21:34;9.60;99.90
2625;DHT22;1322;53.256;10.386;2023-11-21T10:24:00;9.70;99.90
2625;DHT22;1322;53.256;10.386;2023-11-21T10:26:28;9.40;99.90
2625;DHT22;1322;53.256;10.386;2023-11-21T10:29:01;9.10;99.90
2625;DHT22;1322;53.256;10.386;2023-11-21T10:31:31;9.00;99.90
2625;DHT22;1322;53.256;10.386;2023-11-21T10:34:15;9.10;99.90
2625;DHT22;1322;53.256;10.386;2023-11-21T10:36:41;9.30;99.90
2625;DHT22;1322;53.256;10.386;2023-11-21T10:39:07;9.40;99.90
2625;DHT22;1322;53.256;10.386;2023-11-21T10:41:33;9.30;99.90
2625;DHT22;1322;53.256;10.386;2023-11-21T10:44:01;9.20;99.90
2625;DHT22;1322;53.256;10.386;2023-11-21T10:46:29;9.20;99.90
2625;DHT22;1322;53.256;10.386;2023-11-21T10:48:56;9.10;99.90
2625;DHT22;1322;53.256;10.386;2023-11-21T10:51:22;9.30;99.90
2625;DHT22;1322;53.256;10.386;2023-11-21T10:53:51;9.40;99.90
2625;DHT22;1322;53.256;10.386;2023-11-21T10:56:18;9.50;99.90
2625;DHT22;1322;53.256;10.386;2023-11-21T10:58:45;9.50;99.90
2625;DHT22;1322;53.256;10.386;2023-11-21T11:01:11;9.50;99.90
2625;DHT22;1322;53.256;10.386;2023-11-21T11:03:39;9.50;99.90
2625;DHT22;1322;53.256;10.386;2023-11-21T11:06:07;9.40;99.90
2625;DHT22;1322;53.256;10.386;2023-11-21T11:08:37;9.30;99.90
2625;DHT22;1322;53.256;10.386;2023-11-21T11:11:08;9.30;99.90
2625;DHT22;1322;53.256;10.386;2023-11-21T11:13:35;9.10;99.90
2625;DHT22;1322;53.256;10.386;2023-11-21T11:16:03;9.20;99.90
2625;DHT22;1322;53.256;10.386;2023-11-21T11:18:33;9.40;99.90
2625;DHT22;1322;53.256;10.386;2023-11-21T11:21:11;9.50;99.90
2625;DHT22;1322;53.256;10.386;2023-11-21T11:23:59;9.60;99.90
2625;DHT22;1322;53.256;10.386;2023-11-21T11:26:42;9.90;99.90
2625;DHT22;1322;53.256;10.386;2023-11-21T11:34:59;10.40;99.90
2625;DHT22;1322;53.256;10.386;2023-11-21T11:37:26;10.50;99.90
2625;DHT22;1322;53.256;10.386;2023-11-21T11:39:52;10.70;99.90
2625;DHT22;1322;53.256;10.386;2023-11-21T11:42:21;10.80;99.90
2625;DHT22;1322;53.256;10.386;2023-11-21T11:44:49;13.00;99.90
2625;DHT22;1322;53.256;10.386;2023-11-21T11:47:31;12.10;99.90
2625;DHT22;1322;53.256;10.386;2023-11-21T11:52:49;19.50;99.90
2625;DHT22;1322;53.256;10.386;2023-11-21T11:55:18;17.10;99.90
2625;DHT22;1322;53.256;10.386;2023-11-21T11:57:45;15.80;99.90
2625;DHT22;1322;53.256;10.386;2023-11-21T12:00:20;14.40;99.90
2625;DHT22;1322;53.256;10.386;2023-11-21T12:02:48;13.50;99.90
2625;DHT22;1322;53.256;10.386;2023-11-21T12:05:16;12.80;99.90
2625;DHT22;1322;53.256;10.386;2023-11-21T12:10:14;12.10;99.90
2625;DHT22;1322;53.256;10.386;2023-11-21T12:12:44;11.70;99.90
2625;DHT22;1322;53.256;10.386;2023-11-21T12:15:11;11.20;99.90
2625;DHT22;1322;53.256;10.386;2023-11-21T12:17:39;10.70;99.90
2625;DHT22;1322;53.256;10.386;2023-11-21T12:20:05;10.40;99.90
2625;DHT22;1322;53.256;10.386;2023-11-21T12:23:00;10.20;99.90
2625;DHT22;1322;53.256;10.386;2023-11-21T12:25:28;10.20;99.90
2625;DHT22;1322;53.256;10.386;2023-11-21T12:27:55;14.70;99.90
2625;DHT22;1322;53.256;10.386;2023-11-21T12:30:27;19.40;99.90
2625;DHT22;1322;53.256;10.386;2023-11-21T12:33:01;23.80;99.90
2625;DHT22;1322;53.256;10.386;2023-11-21T12:35:30;21.70;99.90
2625;DHT22;1322;53.256;10.386;2023-11-21T12:37:57;29.00;85.30
2625;DHT22;1322;53.256;10.386;2023-11-21T12:40:23;25.00;84.80
2625;DHT22;1322;53.256;10.386;2023-11-21T12:42:52;20.30;90.20
2625;DHT22;1322;53.256;10.386;2023-11-21T12:45:22;18.00;97.90
2625;DHT22;1322;53.256;10.386;2023-11-21T12:48:02;15.50;99.90
2625;DHT22;1322;53.256;10.386;2023-11-21T12:50:33;14.50;99.90
2625;DHT22;1322;53.256;10.386;2023-11-21T12:53:04;13.30;99.90
2625;DHT22;1322;53.256;10.386;2023-11-21T12:55:32;12.60;99.90
2625;DHT22;1322;53.256;10.386;2023-11-21T12:58:00;12.40;99.90
2625;DHT22;1322;53.256;10.386;2023-11-21T13:03:06;11.40;99.90
2625;DHT22;1322;53.256;10.386;2023-11-21T13:05:39;10.90;99.90
2625;DHT22;1322;53.256;10.386;2023-11-21T13:08:09;10.70;99.90
2625;DHT22;1322;53.256;10.386;2023-11-21T13:10:39;10.50;99.90
2625;DHT22;1322;53.256;10.386;2023-11-21T13:13:06;10.50;99.90
2625;DHT22;1322;53.256;10.386;2023-11-21T13:15:34;10.40;99.90
2625;DHT22;1322;53.256;10.386;2023-11-21T13:18:02;10.20;99.90
2625;DHT22;1322;53.256;10.386;2023-11-21T13:20:28;10.00;99.90
2625;DHT22;1322;53.256;10.386;2023-11-21T13:22:56;10.00;99.90
2625;DHT22;1322;53.256;10.386;2023-11-21T13:25:29;10.00;99.90
2625;DHT22;1322;53.256;10.386;2023-11-21T13:27:57;9.80;99.90
2625;DHT22;1322;53.256;10.386;2023-11-21T13:30:24;9.60;99.90
2625;DHT22;1322;53.256;10.386;2023-11-21T13:32:56;9.60;99.90
2625;DHT22;1322;53.256;10.386;2023-11-21T13:35:32;9.60;99.90
2625;DHT22;1322;53.256;10.386;2023-11-21T13:38:12;9.70;99.90
2625;DHT22;1322;53.256;10.386;2023-11-21T13:40:40;9.70;99.90
2625;DHT22;1322;53.256;10.386;2023-11-21T13:43:12;9.70;99.90
2625;DHT22;1322;53.256;10.386;2023-11-21T13:45:39;9.60;99.90
2625;DHT22;1322;53.256;10.386;2023-11-21T13:48:05;9.60;99.90
2625;DHT22;1322;53.256;10.386;2023-11-21T13:50:38;9.60;99.90
2625;DHT22;1322;53.256;10.386;2023-11-21T13:53:07;9.40;99.90
2625;DHT22;1322;53.256;10.386;2023-11-21T13:55:44;9.30;99.90
2625;DHT22;1322;53.256;10.386;2023-11-21T13:58:10;9.30;99.90
2625;DHT22;1322;53.256;10.386;2023-11-21T14:00:42;9.30;99.90
2625;DHT22;1322;53.256;10.386;2023-11-21T14:03:11;9.20;99.90
2625;DHT22;1322;53.256;10.386;2023-11-21T14:05:50;9.20;99.90
2625;DHT22;1322;53.256;10.386;2023-11-21T14:08:21;9.40;99.90
2625;DHT22;1322;53.256;10.386;2023-11-21T14:10:48;9.20;99.90
2625;DHT22;1322;53.256;10.386;2023-11-21T14:13:21;9.30;99.90
2625;DHT22;1322;53.256;10.386;2023-11-21T14:15:49;9.20;99.90
2625;DHT22;1322;53.256;10.386;2023-11-21T14:18:17;9.00;99.90
2625;DHT22;1322;53.256;10.386;2023-11-21T14:20:51;9.10;99.90
2625;DHT22;1322;53.256;10.386;2023-11-21T14:23:17;9.00;99.90
2625;DHT22;1322;53.256;10.386;2023-11-21T14:25:43;9.00;99.90
2625;DHT22;1322;53.256;10.386;2023-11-21T14:28:09;9.10;99.90
2625;DHT22;1322;53.256;10.386;2023-11-21T14:30:37;9.10;99.90
2625;DHT22;1322;53.256;10.386;2023-11-21T14:33:05;9.00;99.90
2625;DHT22;1322;53.256;10.386;2023-11-21T14:35:31;8.90;99.90
2625;DHT22;1322;53.256;10.386;2023-11-21T14:37:58;8.90;99.90
2625;DHT22;1322;53.256;10.386;2023-11-21T14:40:24;9.00;99.90
2625;DHT22;1322;53.256;10.386;2023-11-21T14:42:51;9.10;99.90
2625;DHT22;1322;53.256;10.386;2023-11-21T14:45:21;9.00;99.90
2625;DHT22;1322;53.256;10.386;2023-11-21T14:47:48;9.10;99.90
2625;DHT22;1322;53.256;10.386;2023-11-21T14:50:33;9.20;99.90
2625;DHT22;1322;53.256;10.386;2023-11-21T14:53:17;9.20;99.90
2625;DHT22;1322;53.256;10.386;2023-11-21T14:55:56;9.30;99.90
2625;DHT22;1322;53.256;10.386;2023-11-21T14:58:25;9.40;99.90
2625;DHT22;1322;53.256;10.386;2023-11-21T15:00:55;9.50;99.90
2625;DHT22;1322;53.256;10.386;2023-11-21T15:03:24;9.50;99.90
2625;DHT22;1322;53.256;10.386;2023-11-21T15:06:02;9.40;99.90
2625;DHT22;1322;53.256;10.386;2023-11-21T15:08:49;9.40;99.90
2625;DHT22;1322;53.256;10.386;2023-11-21T15:11:22;9.20;99.90
2625;DHT22;1322;53.256;10.386;2023-11-21T15:13:55;9.00;99.90
2625;DHT22;1322;53.256;10.386;2023-11-21T15:16:20;8.80;99.90
2625;DHT22;1322;53.256;10.386;2023-11-21T15:18:46;8.80;99.90
2625;DHT22;1322;53.256;10.386;2023-11-21T15:21:12;8.80;99.90
2625;DHT22;1322;53.256;10.386;2023-11-21T15:23:38;8.60;99.90
2625;DHT22;1322;53.256;10.386;2023-11-21T15:26:04;8.60;99.90
2625;DHT22;1322;53.256;10.386;2023-11-21T15:28:30;8.50;99.90
2625;DHT22;1322;53.256;10.386;2023-11-21T15:30:58;8.30;99.90
2625;DHT22;1322;53.256;10.386;2023-11-21T15:33:23;8.50;99.90
2625;DHT22;1322;53.256;10.386;2023-11-21T15:35:49;8.60;99.90
2625;DHT22;1322;53.256;10.386;2023-11-21T15:38:15;8.60;99.90
2625;DHT22;1322;53.256;10.386;2023-11-21T15:40:41;8.60;99.90
2625;DHT22;1322;53.256;10.386;2023-11-21T15:43:08;8.70;99.90
2625;DHT22;1322;53.256;10.386;2023-11-21T15:45:34;8.70;99.90
2625;DHT22;1322;53.256;10.386;2023-11-21T15:47:59;8.50;99.90
2625;DHT22;1322;53.256;10.386;2023-11-21T15:50:26;8.60;99.90
2625;DHT22;1322;53.256;10.386;2023-11-21T15:52:52;8.50;99.90
2625;DHT22;1322;53.256;10.386;2023-11-21T15:55:18;8.40;99.90
2625;DHT22;1322;53.256;10.386;2023-11-21T15:57:44;8.40;99.90
2625;DHT22;1322;53.256;10.386;2023-11-21T16:00:11;8.20;99.90
2625;DHT22;1322;53.256;10.386;2023-11-21T16:02:42;8.20;99.90
2625;DHT22;1322;53.256;10.386;2023-11-21T16:05:08;8.20;99.90
2625;DHT22;1322;53.256;10.386;2023-11-21T16:07:34;8.20;99.90
2625;DHT22;1322;53.256;10.386;2023-11-21T16:10:01;8.10;99.90
2625;DHT22;1322;53.256;10.386;2023-11-21T16:12:27;8.10;99.90
2625;DHT22;1322;53.256;10.386;2023-11-21T16:14:53;7.80;99.90